sensor_id;sensor_type;location;lat;lon;timestamp;P1;durP1;ratioP1;P2;durP2;ratioP2
7957;SDS011;4024;52.172;5.378;2023-02-26T00:01:11;11.23;;;5.43;;
7957;SDS011;4024;52.172;5.378;2023-02-26T00:03:38;9.03;;;4.80;;
7957;SDS011;4024;52.172;5.378;2023-02-26T00:06:04;7.30;;;4.77;;
7957;SDS011;4024;52.172;5.378;2023-02-26T00:08:30;9.33;;;5.07;;
7957;SDS011;4024;52.172;5.378;2023-02-26T00:10:57;7.60;;;4.87;;
7957;SDS011;4024;52.172;5.378;2023-02-26T00:13:25;8.00;;;4.50;;
7957;SDS011;4024;52.172;5.378;2023-02-26T00:15:55;10.50;;;4.60;;
7957;SDS011;4024;52.172;5.378;2023-02-26T00:18:24;5.73;;;3.00;;
7957;SDS011;4024;52.172;5.378;2023-02-26T00:20:50;5.83;;;2.87;;
7957;SDS011;4024;52.172;5.378;2023-02-26T00:23:15;8.03;;;2.40;;
7957;SDS011;4024;52.172;5.378;2023-02-26T00:25:42;7.83;;;2.07;;
7957;SDS011;4024;52.172;5.378;2023-02-26T00:28:08;5.87;;;2.33;;
7957;SDS011;4024;52.172;5.378;2023-02-26T00:30:35;9.47;;;2.20;;
7957;SDS011;4024;52.172;5.378;2023-02-26T00:33:01;2.97;;;1.80;;
7957;SDS011;4024;52.172;5.378;2023-02-26T00:35:27;5.13;;;1.90;;
7957;SDS011;4024;52.172;5.378;2023-02-26T00:40:37;5.10;;;1.77;;
7957;SDS011;4024;52.172;5.378;2023-02-26T00:43:08;8.73;;;2.20;;
7957;SDS011;4024;52.172;5.378;2023-02-26T00:45:40;3.30;;;1.70;;
7957;SDS011;4024;52.172;5.378;2023-02-26T00:48:21;5.00;;;1.70;;
7957;SDS011;4024;52.172;5.378;2023-02-26T00:51:01;4.40;;;2.37;;
7957;SDS011;4024;52.172;5.378;2023-02-26T00:53:45;4.13;;;2.03;;
7957;SDS011;4024;52.172;5.378;2023-02-26T00:56:21;6.07;;;2.00;;
7957;SDS011;4024;52.172;5.378;2023-02-26T00:58:47;5.37;;;2.00;;
7957;SDS011;4024;52.172;5.378;2023-02-26T01:01:12;5.57;;;1.70;;
7957;SDS011;4024;52.172;5.378;2023-02-26T01:03:38;4.97;;;1.93;;
7957;SDS011;4024;52.172;5.378;2023-02-26T01:06:08;8.37;;;2.40;;
7957;SDS011;4024;52.172;5.378;2023-02-26T01:09:22;4.70;;;2.00;;
7957;SDS011;4024;52.172;5.378;2023-02-26T01:11:26;4.80;;;1.80;;
7957;SDS011;4024;52.172;5.378;2023-02-26T01:13:52;6.97;;;1.90;;
7957;SDS011;4024;52.172;5.378;2023-02-26T01:16:20;6.83;;;2.20;;
7957;SDS011;4024;52.172;5.378;2023-02-26T01:18:53;3.40;;;1.77;;
7957;SDS011;4024;52.172;5.378;2023-02-26T01:21:28;5.00;;;1.97;;
7957;SDS011;4024;52.172;5.378;2023-02-26T01:23:57;3.97;;;2.00;;
7957;SDS011;4024;52.172;5.378;2023-02-26T01:26:26;3.20;;;1.70;;
7957;SDS011;4024;52.172;5.378;2023-02-26T01:28:53;7.10;;;2.03;;
7957;SDS011;4024;52.172;5.378;2023-02-26T01:33:55;7.83;;;2.07;;
7957;SDS011;4024;52.172;5.378;2023-02-26T01:36:40;7.07;;;2.00;;
7957;SDS011;4024;52.172;5.378;2023-02-26T01:41:59;5.80;;;2.07;;
7957;SDS011;4024;52.172;5.378;2023-02-26T01:50:16;5.00;;;2.00;;
7957;SDS011;4024;52.172;5.378;2023-02-26T01:55:16;2.20;;;1.53;;
7957;SDS011;4024;52.172;5.378;2023-02-26T01:57:47;6.20;;;1.80;;
7957;SDS011;4024;52.172;5.378;2023-02-26T02:00:15;7.27;;;1.83;;
7957;SDS011;4024;52.172;5.378;2023-02-26T02:02:42;5.90;;;2.50;;
7957;SDS011;4024;52.172;5.378;2023-02-26T02:05:13;7.77;;;2.03;;
7957;SDS011;4024;52.172;5.378;2023-02-26T02:07:47;6.87;;;2.13;;
7957;SDS011;4024;52.172;5.378;2023-02-26T02:10:14;4.77;;;2.00;;
7957;SDS011;4024;52.172;5.378;2023-02-26T02:12:42;5.20;;;2.00;;
7957;SDS011;4024;52.172;5.378;2023-02-26T02:15:31;5.93;;;2.03;;
7957;SDS011;4024;52.172;5.378;2023-02-26T02:18:13;7.57;;;2.40;;
7957;SDS011;4024;52.172;5.378;2023-02-26T02:29:21;5.93;;;1.90;;
7957;SDS011;4024;52.172;5.378;2023-02-26T02:31:56;7.23;;;2.17;;
7957;SDS011;4024;52.172;5.378;2023-02-26T02:35:08;5.70;;;1.73;;
7957;SDS011;4024;52.172;5.378;2023-02-26T02:37:33;5.70;;;2.10;;
7957;SDS011;4024;52.172;5.378;2023-02-26T02:40:12;6.37;;;2.30;;
7957;SDS011;4024;52.172;5.378;2023-02-26T02:42:54;4.77;;;1.83;;
7957;SDS011;4024;52.172;5.378;2023-02-26T02:45:25;7.00;;;1.90;;
7957;SDS011;4024;52.172;5.378;2023-02-26T02:48:07;4.33;;;1.80;;
7957;SDS011;4024;52.172;5.378;2023-02-26T02:50:47;4.00;;;1.67;;
7957;SDS011;4024;52.172;5.378;2023-02-26T02:56:03;3.20;;;1.80;;
7957;SDS011;4024;52.172;5.378;2023-02-26T02:58:39;3.87;;;1.63;;
7957;SDS011;4024;52.172;5.378;2023-02-26T03:01:09;9.43;;;2.20;;
7957;SDS011;4024;52.172;5.378;2023-02-26T03:03:42;8.03;;;1.80;;
7957;SDS011;4024;52.172;5.378;2023-02-26T03:06:22;4.07;;;2.10;;
7957;SDS011;4024;52.172;5.378;2023-02-26T03:08:52;6.43;;;1.90;;
7957;SDS011;4024;52.172;5.378;2023-02-26T03:11:18;5.57;;;2.00;;
7957;SDS011;4024;52.172;5.378;2023-02-26T03:13:44;7.43;;;1.93;;
7957;SDS011;4024;52.172;5.378;2023-02-26T03:32:26;4.43;;;1.60;;
7957;SDS011;4024;52.172;5.378;2023-02-26T03:35:16;2.83;;;1.50;;
7957;SDS011;4024;52.172;5.378;2023-02-26T03:37:47;4.53;;;2.00;;
7957;SDS011;4024;52.172;5.378;2023-02-26T03:40:22;3.23;;;1.93;;
7957;SDS011;4024;52.172;5.378;2023-02-26T03:43:05;4.63;;;1.57;;
7957;SDS011;4024;52.172;5.378;2023-02-26T03:45:45;3.67;;;1.67;;
7957;SDS011;4024;52.172;5.378;2023-02-26T03:48:14;4.37;;;1.60;;
7957;SDS011;4024;52.172;5.378;2023-02-26T03:50:44;4.33;;;1.83;;
7957;SDS011;4024;52.172;5.378;2023-02-26T03:53:15;4.30;;;1.83;;
7957;SDS011;4024;52.172;5.378;2023-02-26T03:55:49;4.30;;;1.73;;
7957;SDS011;4024;52.172;5.378;2023-02-26T03:58:25;5.93;;;1.90;;
7957;SDS011;4024;52.172;5.378;2023-02-26T04:00:53;3.27;;;1.80;;
7957;SDS011;4024;52.172;5.378;2023-02-26T04:03:29;3.93;;;1.73;;
7957;SDS011;4024;52.172;5.378;2023-02-26T04:06:00;4.87;;;1.83;;
7957;SDS011;4024;52.172;5.378;2023-02-26T04:08:27;6.07;;;1.80;;
7957;SDS011;4024;52.172;5.378;2023-02-26T04:10:58;4.33;;;1.70;;
7957;SDS011;4024;52.172;5.378;2023-02-26T04:13:28;5.57;;;1.40;;
7957;SDS011;4024;52.172;5.378;2023-02-26T04:15:54;5.67;;;1.57;;
7957;SDS011;4024;52.172;5.378;2023-02-26T04:18:19;5.87;;;2.07;;
7957;SDS011;4024;52.172;5.378;2023-02-26T04:20:45;6.40;;;1.80;;
7957;SDS011;4024;52.172;5.378;2023-02-26T04:23:10;4.03;;;1.73;;
7957;SDS011;4024;52.172;5.378;2023-02-26T04:25:36;6.07;;;2.07;;
7957;SDS011;4024;52.172;5.378;2023-02-26T04:28:02;3.83;;;2.40;;
7957;SDS011;4024;52.172;5.378;2023-02-26T04:30:27;4.47;;;2.03;;
7957;SDS011;4024;52.172;5.378;2023-02-26T04:32:53;2.77;;;1.67;;
7957;SDS011;4024;52.172;5.378;2023-02-26T04:35:19;5.07;;;1.87;;
7957;SDS011;4024;52.172;5.378;2023-02-26T04:37:45;6.57;;;2.10;;
7957;SDS011;4024;52.172;5.378;2023-02-26T04:40:10;3.77;;;1.67;;
7957;SDS011;4024;52.172;5.378;2023-02-26T04:42:36;3.50;;;2.20;;
7957;SDS011;4024;52.172;5.378;2023-02-26T04:45:02;6.23;;;1.60;;
7957;SDS011;4024;52.172;5.378;2023-02-26T04:47:28;4.37;;;1.70;;
7957;SDS011;4024;52.172;5.378;2023-02-26T04:49:53;2.00;;;1.40;;
7957;SDS011;4024;52.172;5.378;2023-02-26T04:52:19;5.10;;;1.70;;
7957;SDS011;4024;52.172;5.378;2023-02-26T04:54:45;5.90;;;1.80;;
7957;SDS011;4024;52.172;5.378;2023-02-26T04:57:10;4.77;;;1.80;;
7957;SDS011;4024;52.172;5.378;2023-02-26T04:59:36;3.70;;;1.80;;
7957;SDS011;4024;52.172;5.378;2023-02-26T05:02:03;5.00;;;1.70;;
7957;SDS011;4024;52.172;5.378;2023-02-26T05:04:29;3.43;;;1.70;;
7957;SDS011;4024;52.172;5.378;2023-02-26T05:06:55;3.23;;;1.60;;
7957;SDS011;4024;52.172;5.378;2023-02-26T05:09:21;4.10;;;1.67;;
7957;SDS011;4024;52.172;5.378;2023-02-26T05:11:46;5.53;;;1.60;;
7957;SDS011;4024;52.172;5.378;2023-02-26T05:14:13;5.97;;;1.50;;
7957;SDS011;4024;52.172;5.378;2023-02-26T05:16:39;4.30;;;1.60;;
7957;SDS011;4024;52.172;5.378;2023-02-26T05:19:04;5.23;;;1.60;;
7957;SDS011;4024;52.172;5.378;2023-02-26T05:21:30;2.00;;;1.60;;
7957;SDS011;4024;52.172;5.378;2023-02-26T05:23:56;4.17;;;1.57;;
7957;SDS011;4024;52.172;5.378;2023-02-26T05:26:22;3.57;;;1.70;;
7957;SDS011;4024;52.172;5.378;2023-02-26T05:28:47;2.83;;;1.50;;
7957;SDS011;4024;52.172;5.378;2023-02-26T05:31:13;2.83;;;1.60;;
7957;SDS011;4024;52.172;5.378;2023-02-26T05:33:39;4.43;;;2.17;;
7957;SDS011;4024;52.172;5.378;2023-02-26T05:36:05;3.43;;;1.60;;
7957;SDS011;4024;52.172;5.378;2023-02-26T05:38:31;4.53;;;1.30;;
7957;SDS011;4024;52.172;5.378;2023-02-26T05:40:57;4.93;;;2.07;;
7957;SDS011;4024;52.172;5.378;2023-02-26T05:43:24;3.43;;;1.40;;
7957;SDS011;4024;52.172;5.378;2023-02-26T05:45:50;4.20;;;1.70;;
7957;SDS011;4024;52.172;5.378;2023-02-26T05:48:16;5.30;;;1.60;;
7957;SDS011;4024;52.172;5.378;2023-02-26T05:50:41;1.87;;;1.50;;
7957;SDS011;4024;52.172;5.378;2023-02-26T05:53:07;3.83;;;1.93;;
7957;SDS011;4024;52.172;5.378;2023-02-26T05:55:33;3.57;;;1.63;;
7957;SDS011;4024;52.172;5.378;2023-02-26T05:57:58;7.03;;;2.13;;
7957;SDS011;4024;52.172;5.378;2023-02-26T06:00:24;3.90;;;1.47;;
7957;SDS011;4024;52.172;5.378;2023-02-26T06:02:51;5.47;;;1.83;;
7957;SDS011;4024;52.172;5.378;2023-02-26T06:05:17;3.77;;;1.80;;
7957;SDS011;4024;52.172;5.378;2023-02-26T06:07:42;3.27;;;1.93;;
7957;SDS011;4024;52.172;5.378;2023-02-26T06:10:08;4.20;;;1.73;;
7957;SDS011;4024;52.172;5.378;2023-02-26T06:12:35;3.03;;;1.80;;
7957;SDS011;4024;52.172;5.378;2023-02-26T06:15:01;3.47;;;1.70;;
7957;SDS011;4024;52.172;5.378;2023-02-26T06:17:27;6.73;;;1.80;;
7957;SDS011;4024;52.172;5.378;2023-02-26T06:19:52;5.57;;;1.80;;
7957;SDS011;4024;52.172;5.378;2023-02-26T06:22:18;3.93;;;1.80;;
7957;SDS011;4024;52.172;5.378;2023-02-26T06:24:45;6.10;;;1.70;;
7957;SDS011;4024;52.172;5.378;2023-02-26T06:27:10;5.50;;;1.90;;
7957;SDS011;4024;52.172;5.378;2023-02-26T06:29:36;2.73;;;1.67;;
7957;SDS011;4024;52.172;5.378;2023-02-26T06:32:03;3.37;;;1.70;;
7957;SDS011;4024;52.172;5.378;2023-02-26T06:34:29;3.53;;;2.00;;
7957;SDS011;4024;52.172;5.378;2023-02-26T06:36:55;3.47;;;1.70;;
7957;SDS011;4024;52.172;5.378;2023-02-26T06:39:21;6.13;;;2.27;;
7957;SDS011;4024;52.172;5.378;2023-02-26T06:41:46;9.03;;;1.97;;
7957;SDS011;4024;52.172;5.378;2023-02-26T06:44:12;2.03;;;1.40;;
7957;SDS011;4024;52.172;5.378;2023-02-26T06:46:38;2.80;;;1.70;;
7957;SDS011;4024;52.172;5.378;2023-02-26T06:49:04;3.77;;;1.43;;
7957;SDS011;4024;52.172;5.378;2023-02-26T06:51:30;2.40;;;1.33;;
7957;SDS011;4024;52.172;5.378;2023-02-26T06:53:56;4.53;;;1.80;;
7957;SDS011;4024;52.172;5.378;2023-02-26T06:56:22;2.10;;;1.57;;
7957;SDS011;4024;52.172;5.378;2023-02-26T06:58:48;10.93;;;3.03;;
7957;SDS011;4024;52.172;5.378;2023-02-26T07:01:13;4.40;;;1.77;;
7957;SDS011;4024;52.172;5.378;2023-02-26T07:03:40;4.03;;;2.00;;
7957;SDS011;4024;52.172;5.378;2023-02-26T07:06:06;3.07;;;2.03;;
7957;SDS011;4024;52.172;5.378;2023-02-26T07:08:34;6.70;;;1.87;;
7957;SDS011;4024;52.172;5.378;2023-02-26T07:10:59;3.10;;;1.47;;
7957;SDS011;4024;52.172;5.378;2023-02-26T07:13:25;3.03;;;1.70;;
7957;SDS011;4024;52.172;5.378;2023-02-26T07:15:50;3.23;;;1.63;;
7957;SDS011;4024;52.172;5.378;2023-02-26T07:18:16;3.43;;;1.80;;
7957;SDS011;4024;52.172;5.378;2023-02-26T07:20:42;2.97;;;1.43;;
7957;SDS011;4024;52.172;5.378;2023-02-26T07:23:09;5.17;;;1.90;;
7957;SDS011;4024;52.172;5.378;2023-02-26T07:25:34;3.70;;;2.00;;
7957;SDS011;4024;52.172;5.378;2023-02-26T07:28:01;5.07;;;1.73;;
7957;SDS011;4024;52.172;5.378;2023-02-26T07:30:27;2.80;;;1.50;;
7957;SDS011;4024;52.172;5.378;2023-02-26T07:32:53;3.63;;;1.80;;
7957;SDS011;4024;52.172;5.378;2023-02-26T07:35:18;6.20;;;1.63;;
7957;SDS011;4024;52.172;5.378;2023-02-26T07:37:44;3.63;;;1.70;;
7957;SDS011;4024;52.172;5.378;2023-02-26T07:40:10;5.67;;;1.70;;
7957;SDS011;4024;52.172;5.378;2023-02-26T07:42:36;5.50;;;1.70;;
7957;SDS011;4024;52.172;5.378;2023-02-26T07:45:02;2.63;;;1.63;;
7957;SDS011;4024;52.172;5.378;2023-02-26T07:47:28;4.83;;;1.83;;
7957;SDS011;4024;52.172;5.378;2023-02-26T07:49:54;3.13;;;1.90;;
7957;SDS011;4024;52.172;5.378;2023-02-26T07:52:20;4.97;;;1.97;;
7957;SDS011;4024;52.172;5.378;2023-02-26T07:54:46;5.40;;;1.57;;
7957;SDS011;4024;52.172;5.378;2023-02-26T07:57:11;6.37;;;1.70;;
7957;SDS011;4024;52.172;5.378;2023-02-26T07:59:37;5.70;;;2.10;;
7957;SDS011;4024;52.172;5.378;2023-02-26T08:02:02;8.57;;;1.70;;
7957;SDS011;4024;52.172;5.378;2023-02-26T08:04:28;4.63;;;1.90;;
7957;SDS011;4024;52.172;5.378;2023-02-26T08:06:57;5.53;;;1.87;;
7957;SDS011;4024;52.172;5.378;2023-02-26T08:09:24;3.77;;;1.90;;
7957;SDS011;4024;52.172;5.378;2023-02-26T08:11:50;4.97;;;1.70;;
7957;SDS011;4024;52.172;5.378;2023-02-26T08:14:16;6.20;;;1.77;;
7957;SDS011;4024;52.172;5.378;2023-02-26T08:16:41;4.37;;;1.93;;
7957;SDS011;4024;52.172;5.378;2023-02-26T08:19:07;5.70;;;1.63;;
7957;SDS011;4024;52.172;5.378;2023-02-26T08:21:33;8.00;;;1.77;;
7957;SDS011;4024;52.172;5.378;2023-02-26T08:23:59;5.17;;;2.07;;
7957;SDS011;4024;52.172;5.378;2023-02-26T08:26:24;4.17;;;1.87;;
7957;SDS011;4024;52.172;5.378;2023-02-26T08:28:50;4.63;;;1.60;;
7957;SDS011;4024;52.172;5.378;2023-02-26T08:31:16;4.13;;;1.90;;
7957;SDS011;4024;52.172;5.378;2023-02-26T08:33:42;7.57;;;1.70;;
7957;SDS011;4024;52.172;5.378;2023-02-26T08:36:08;8.37;;;1.80;;
7957;SDS011;4024;52.172;5.378;2023-02-26T08:38:34;7.33;;;1.90;;
7957;SDS011;4024;52.172;5.378;2023-02-26T08:40:59;5.47;;;1.67;;
7957;SDS011;4024;52.172;5.378;2023-02-26T08:43:27;4.37;;;1.70;;
7957;SDS011;4024;52.172;5.378;2023-02-26T08:45:54;3.60;;;1.60;;
7957;SDS011;4024;52.172;5.378;2023-02-26T08:48:21;4.13;;;2.03;;
7957;SDS011;4024;52.172;5.378;2023-02-26T08:50:46;5.93;;;2.17;;
7957;SDS011;4024;52.172;5.378;2023-02-26T08:53:12;2.90;;;1.90;;
7957;SDS011;4024;52.172;5.378;2023-02-26T08:55:38;4.27;;;1.80;;
7957;SDS011;4024;52.172;5.378;2023-02-26T08:58:03;11.13;;;2.20;;
7957;SDS011;4024;52.172;5.378;2023-02-26T09:00:30;4.73;;;2.07;;
7957;SDS011;4024;52.172;5.378;2023-02-26T09:02:55;2.87;;;1.60;;
7957;SDS011;4024;52.172;5.378;2023-02-26T09:05:21;3.17;;;1.50;;
7957;SDS011;4024;52.172;5.378;2023-02-26T09:07:47;3.13;;;1.53;;
7957;SDS011;4024;52.172;5.378;2023-02-26T09:10:13;3.33;;;1.60;;
7957;SDS011;4024;52.172;5.378;2023-02-26T09:12:39;3.33;;;1.67;;
7957;SDS011;4024;52.172;5.378;2023-02-26T09:15:05;11.73;;;1.90;;
7957;SDS011;4024;52.172;5.378;2023-02-26T09:17:32;3.50;;;1.50;;
7957;SDS011;4024;52.172;5.378;2023-02-26T09:19:58;2.97;;;1.60;;
7957;SDS011;4024;52.172;5.378;2023-02-26T09:22:24;3.47;;;1.70;;
7957;SDS011;4024;52.172;5.378;2023-02-26T09:24:49;8.73;;;2.20;;
7957;SDS011;4024;52.172;5.378;2023-02-26T09:27:15;4.47;;;1.70;;
7957;SDS011;4024;52.172;5.378;2023-02-26T09:29:41;4.27;;;1.63;;
7957;SDS011;4024;52.172;5.378;2023-02-26T09:32:07;3.47;;;1.67;;
7957;SDS011;4024;52.172;5.378;2023-02-26T09:34:33;2.30;;;1.60;;
7957;SDS011;4024;52.172;5.378;2023-02-26T09:36:59;2.03;;;1.37;;
7957;SDS011;4024;52.172;5.378;2023-02-26T09:39:25;3.07;;;1.50;;
7957;SDS011;4024;52.172;5.378;2023-02-26T09:41:51;3.70;;;1.50;;
7957;SDS011;4024;52.172;5.378;2023-02-26T09:46:48;3.17;;;1.30;;
7957;SDS011;4024;52.172;5.378;2023-02-26T09:49:31;5.93;;;1.43;;
7957;SDS011;4024;52.172;5.378;2023-02-26T09:52:01;3.83;;;1.40;;
7957;SDS011;4024;52.172;5.378;2023-02-26T09:54:29;2.53;;;1.40;;
7957;SDS011;4024;52.172;5.378;2023-02-26T09:56:58;3.13;;;1.43;;
7957;SDS011;4024;52.172;5.378;2023-02-26T09:59:29;3.50;;;1.60;;
7957;SDS011;4024;52.172;5.378;2023-02-26T10:02:17;2.63;;;1.40;;
7957;SDS011;4024;52.172;5.378;2023-02-26T10:05:09;3.30;;;1.70;;
7957;SDS011;4024;52.172;5.378;2023-02-26T10:13:14;2.03;;;1.37;;
7957;SDS011;4024;52.172;5.378;2023-02-26T10:15:44;2.00;;;1.27;;
7957;SDS011;4024;52.172;5.378;2023-02-26T10:18:15;2.07;;;1.40;;
7957;SDS011;4024;52.172;5.378;2023-02-26T10:20:59;3.30;;;1.53;;
7957;SDS011;4024;52.172;5.378;2023-02-26T10:37:12;5.80;;;1.70;;
7957;SDS011;4024;52.172;5.378;2023-02-26T10:39:57;3.13;;;1.67;;
7957;SDS011;4024;52.172;5.378;2023-02-26T10:42:55;2.07;;;1.47;;
7957;SDS011;4024;52.172;5.378;2023-02-26T10:48:08;2.60;;;1.60;;
7957;SDS011;4024;52.172;5.378;2023-02-26T10:50:35;3.90;;;1.50;;
7957;SDS011;4024;52.172;5.378;2023-02-26T10:53:07;2.50;;;1.40;;
7957;SDS011;4024;52.172;5.378;2023-02-26T10:55:40;7.87;;;1.90;;
7957;SDS011;4024;52.172;5.378;2023-02-26T11:00:39;2.53;;;1.33;;
7957;SDS011;4024;52.172;5.378;2023-02-26T11:03:06;2.77;;;1.20;;
7957;SDS011;4024;52.172;5.378;2023-02-26T11:05:37;1.60;;;1.47;;
7957;SDS011;4024;52.172;5.378;2023-02-26T11:08:04;2.90;;;1.40;;
7957;SDS011;4024;52.172;5.378;2023-02-26T11:11:01;4.07;;;1.40;;
7957;SDS011;4024;52.172;5.378;2023-02-26T11:13:29;4.10;;;1.60;;
7957;SDS011;4024;52.172;5.378;2023-02-26T11:16:01;1.83;;;1.40;;
7957;SDS011;4024;52.172;5.378;2023-02-26T11:18:39;4.23;;;1.67;;
7957;SDS011;4024;52.172;5.378;2023-02-26T11:21:21;4.23;;;1.67;;
7957;SDS011;4024;52.172;5.378;2023-02-26T11:23:49;3.03;;;1.60;;
7957;SDS011;4024;52.172;5.378;2023-02-26T11:26:26;2.67;;;1.43;;
7957;SDS011;4024;52.172;5.378;2023-02-26T11:28:56;2.70;;;1.50;;
7957;SDS011;4024;52.172;5.378;2023-02-26T11:31:23;4.77;;;1.70;;
7957;SDS011;4024;52.172;5.378;2023-02-26T11:33:51;2.80;;;1.30;;
7957;SDS011;4024;52.172;5.378;2023-02-26T11:36:20;3.00;;;1.50;;
7957;SDS011;4024;52.172;5.378;2023-02-26T11:38:52;2.87;;;1.70;;
7957;SDS011;4024;52.172;5.378;2023-02-26T11:41:29;1.40;;;1.27;;
7957;SDS011;4024;52.172;5.378;2023-02-26T11:44:02;1.80;;;1.30;;
7957;SDS011;4024;52.172;5.378;2023-02-26T11:46:33;2.13;;;1.63;;
7957;SDS011;4024;52.172;5.378;2023-02-26T11:49:05;2.47;;;1.70;;
7957;SDS011;4024;52.172;5.378;2023-02-26T11:51:34;6.40;;;1.80;;
7957;SDS011;4024;52.172;5.378;2023-02-26T11:54:00;4.17;;;1.50;;
7957;SDS011;4024;52.172;5.378;2023-02-26T11:56:29;3.27;;;1.50;;
7957;SDS011;4024;52.172;5.378;2023-02-26T11:58:54;2.67;;;1.73;;
7957;SDS011;4024;52.172;5.378;2023-02-26T12:01:26;4.73;;;1.43;;
7957;SDS011;4024;52.172;5.378;2023-02-26T12:03:54;2.67;;;1.73;;
7957;SDS011;4024;52.172;5.378;2023-02-26T12:06:23;3.13;;;1.70;;
7957;SDS011;4024;52.172;5.378;2023-02-26T12:08:48;2.53;;;1.77;;
7957;SDS011;4024;52.172;5.378;2023-02-26T12:16:32;1.73;;;1.40;;
7957;SDS011;4024;52.172;5.378;2023-02-26T12:42:02;3.67;;;1.40;;
7957;SDS011;4024;52.172;5.378;2023-02-26T12:55:23;1.63;;;1.40;;
7957;SDS011;4024;52.172;5.378;2023-02-26T13:02:53;1.70;;;1.30;;
7957;SDS011;4024;52.172;5.378;2023-02-26T13:11:01;2.33;;;1.40;;
7957;SDS011;4024;52.172;5.378;2023-02-26T13:13:50;2.80;;;1.30;;
7957;SDS011;4024;52.172;5.378;2023-02-26T13:21:34;2.53;;;1.40;;
7957;SDS011;4024;52.172;5.378;2023-02-26T13:24:06;2.73;;;1.30;;
7957;SDS011;4024;52.172;5.378;2023-02-26T13:26:48;3.03;;;1.63;;
7957;SDS011;4024;52.172;5.378;2023-02-26T13:29:24;2.13;;;1.47;;
7957;SDS011;4024;52.172;5.378;2023-02-26T13:37:09;2.47;;;1.30;;
7957;SDS011;4024;52.172;5.378;2023-02-26T13:39:47;1.80;;;1.40;;
7957;SDS011;4024;52.172;5.378;2023-02-26T13:42:41;3.87;;;1.50;;
7957;SDS011;4024;52.172;5.378;2023-02-26T13:45:24;2.17;;;1.40;;
7957;SDS011;4024;52.172;5.378;2023-02-26T13:50:54;2.13;;;1.17;;
7957;SDS011;4024;52.172;5.378;2023-02-26T13:53:32;2.07;;;1.27;;
7957;SDS011;4024;52.172;5.378;2023-02-26T13:56:07;1.43;;;1.00;;
7957;SDS011;4024;52.172;5.378;2023-02-26T13:58:38;2.77;;;1.23;;
7957;SDS011;4024;52.172;5.378;2023-02-26T14:06:43;2.57;;;1.47;;
7957;SDS011;4024;52.172;5.378;2023-02-26T14:12:41;2.67;;;1.50;;
7957;SDS011;4024;52.172;5.378;2023-02-26T14:17:37;0.90;;;0.90;;
7957;SDS011;4024;52.172;5.378;2023-02-26T14:23:16;2.23;;;1.30;;
7957;SDS011;4024;52.172;5.378;2023-02-26T14:25:47;2.23;;;1.30;;
7957;SDS011;4024;52.172;5.378;2023-02-26T14:28:28;1.30;;;1.20;;
7957;SDS011;4024;52.172;5.378;2023-02-26T14:31:07;1.10;;;1.00;;
7957;SDS011;4024;52.172;5.378;2023-02-26T14:33:41;3.77;;;1.20;;
7957;SDS011;4024;52.172;5.378;2023-02-26T14:36:15;1.33;;;1.00;;
7957;SDS011;4024;52.172;5.378;2023-02-26T14:38:47;3.37;;;1.13;;
7957;SDS011;4024;52.172;5.378;2023-02-26T14:41:29;4.00;;;1.50;;
7957;SDS011;4024;52.172;5.378;2023-02-26T14:43:59;4.67;;;1.70;;
7957;SDS011;4024;52.172;5.378;2023-02-26T14:46:37;2.53;;;1.70;;
7957;SDS011;4024;52.172;5.378;2023-02-26T14:49:03;2.73;;;1.77;;
7957;SDS011;4024;52.172;5.378;2023-02-26T14:51:35;3.33;;;1.33;;
7957;SDS011;4024;52.172;5.378;2023-02-26T14:54:41;3.97;;;1.47;;
7957;SDS011;4024;52.172;5.378;2023-02-26T15:00:12;1.67;;;1.37;;
7957;SDS011;4024;52.172;5.378;2023-02-26T15:24:00;2.83;;;1.27;;
7957;SDS011;4024;52.172;5.378;2023-02-26T15:26:29;1.80;;;1.30;;
7957;SDS011;4024;52.172;5.378;2023-02-26T15:28:57;1.83;;;1.00;;
7957;SDS011;4024;52.172;5.378;2023-02-26T15:31:27;1.47;;;1.20;;
7957;SDS011;4024;52.172;5.378;2023-02-26T15:33:57;1.63;;;1.53;;
7957;SDS011;4024;52.172;5.378;2023-02-26T15:36:22;3.67;;;1.40;;
7957;SDS011;4024;52.172;5.378;2023-02-26T15:38:54;3.57;;;1.67;;
7957;SDS011;4024;52.172;5.378;2023-02-26T15:41:22;5.33;;;1.73;;
7957;SDS011;4024;52.172;5.378;2023-02-26T15:43:50;1.80;;;1.40;;
7957;SDS011;4024;52.172;5.378;2023-02-26T15:46:22;1.93;;;1.37;;
7957;SDS011;4024;52.172;5.378;2023-02-26T15:48:57;3.73;;;1.63;;
7957;SDS011;4024;52.172;5.378;2023-02-26T15:51:39;1.60;;;1.20;;
7957;SDS011;4024;52.172;5.378;2023-02-26T15:54:07;1.50;;;1.27;;
7957;SDS011;4024;52.172;5.378;2023-02-26T15:56:40;3.10;;;1.67;;
7957;SDS011;4024;52.172;5.378;2023-02-26T15:59:18;2.13;;;1.53;;
7957;SDS011;4024;52.172;5.378;2023-02-26T16:01:49;3.77;;;1.97;;
7957;SDS011;4024;52.172;5.378;2023-02-26T16:04:16;2.73;;;1.50;;
7957;SDS011;4024;52.172;5.378;2023-02-26T16:06:45;3.43;;;1.60;;
7957;SDS011;4024;52.172;5.378;2023-02-26T16:09:17;3.67;;;1.33;;
7957;SDS011;4024;52.172;5.378;2023-02-26T16:11:54;2.87;;;1.50;;
7957;SDS011;4024;52.172;5.378;2023-02-26T16:14:26;3.97;;;1.63;;
7957;SDS011;4024;52.172;5.378;2023-02-26T16:16:57;2.60;;;1.50;;
7957;SDS011;4024;52.172;5.378;2023-02-26T16:19:33;2.60;;;1.60;;
7957;SDS011;4024;52.172;5.378;2023-02-26T16:22:06;3.10;;;1.60;;
7957;SDS011;4024;52.172;5.378;2023-02-26T16:24:41;3.90;;;1.50;;
7957;SDS011;4024;52.172;5.378;2023-02-26T16:27:08;2.43;;;1.47;;
7957;SDS011;4024;52.172;5.378;2023-02-26T16:29:38;6.03;;;2.00;;
7957;SDS011;4024;52.172;5.378;2023-02-26T16:32:11;4.80;;;1.80;;
7957;SDS011;4024;52.172;5.378;2023-02-26T16:40:17;3.27;;;1.70;;
7957;SDS011;4024;52.172;5.378;2023-02-26T16:45:42;4.03;;;1.93;;
7957;SDS011;4024;52.172;5.378;2023-02-26T16:53:30;3.73;;;1.77;;
7957;SDS011;4024;52.172;5.378;2023-02-26T16:56:01;2.90;;;1.80;;
7957;SDS011;4024;52.172;5.378;2023-02-26T16:58:28;4.53;;;1.70;;
7957;SDS011;4024;52.172;5.378;2023-02-26T17:01:06;4.17;;;1.77;;
7957;SDS011;4024;52.172;5.378;2023-02-26T17:03:36;2.97;;;1.67;;
7957;SDS011;4024;52.172;5.378;2023-02-26T17:06:07;6.80;;;1.70;;
7957;SDS011;4024;52.172;5.378;2023-02-26T17:11:37;5.40;;;2.00;;
7957;SDS011;4024;52.172;5.378;2023-02-26T17:14:22;5.10;;;1.83;;
7957;SDS011;4024;52.172;5.378;2023-02-26T17:16:50;5.07;;;2.00;;
7957;SDS011;4024;52.172;5.378;2023-02-26T17:19:16;4.83;;;1.77;;
7957;SDS011;4024;52.172;5.378;2023-02-26T17:21:49;2.57;;;1.70;;
7957;SDS011;4024;52.172;5.378;2023-02-26T17:24:19;2.90;;;1.70;;
7957;SDS011;4024;52.172;5.378;2023-02-26T17:26:57;3.67;;;2.00;;
7957;SDS011;4024;52.172;5.378;2023-02-26T17:29:38;6.60;;;2.00;;
7957;SDS011;4024;52.172;5.378;2023-02-26T17:32:14;3.57;;;1.57;;
7957;SDS011;4024;52.172;5.378;2023-02-26T17:34:48;2.83;;;1.80;;
7957;SDS011;4024;52.172;5.378;2023-02-26T17:37:15;6.43;;;2.17;;
7957;SDS011;4024;52.172;5.378;2023-02-26T17:39:41;3.87;;;1.40;;
7957;SDS011;4024;52.172;5.378;2023-02-26T17:42:14;3.53;;;1.70;;
7957;SDS011;4024;52.172;5.378;2023-02-26T17:44:43;3.47;;;2.17;;
7957;SDS011;4024;52.172;5.378;2023-02-26T17:47:16;4.10;;;1.80;;
7957;SDS011;4024;52.172;5.378;2023-02-26T17:49:44;5.13;;;2.00;;
7957;SDS011;4024;52.172;5.378;2023-02-26T17:52:10;4.17;;;1.90;;
7957;SDS011;4024;52.172;5.378;2023-02-26T17:54:36;4.63;;;2.00;;
7957;SDS011;4024;52.172;5.378;2023-02-26T17:57:02;4.03;;;1.90;;
7957;SDS011;4024;52.172;5.378;2023-02-26T17:59:29;4.70;;;1.80;;
7957;SDS011;4024;52.172;5.378;2023-02-26T18:01:54;4.67;;;2.17;;
7957;SDS011;4024;52.172;5.378;2023-02-26T18:04:20;3.97;;;2.10;;
7957;SDS011;4024;52.172;5.378;2023-02-26T18:06:46;4.00;;;2.07;;
7957;SDS011;4024;52.172;5.378;2023-02-26T18:09:12;4.57;;;1.90;;
7957;SDS011;4024;52.172;5.378;2023-02-26T18:11:38;4.47;;;2.00;;
7957;SDS011;4024;52.172;5.378;2023-02-26T18:14:05;7.33;;;2.43;;
7957;SDS011;4024;52.172;5.378;2023-02-26T18:16:33;4.17;;;1.93;;
7957;SDS011;4024;52.172;5.378;2023-02-26T18:19:01;5.77;;;1.90;;
7957;SDS011;4024;52.172;5.378;2023-02-26T18:21:28;4.60;;;1.87;;
7957;SDS011;4024;52.172;5.378;2023-02-26T18:23:55;4.17;;;1.90;;
7957;SDS011;4024;52.172;5.378;2023-02-26T18:26:21;5.40;;;2.00;;
7957;SDS011;4024;52.172;5.378;2023-02-26T18:28:49;6.67;;;2.47;;
7957;SDS011;4024;52.172;5.378;2023-02-26T18:31:15;4.07;;;2.20;;
7957;SDS011;4024;52.172;5.378;2023-02-26T18:33:41;4.43;;;1.90;;
7957;SDS011;4024;52.172;5.378;2023-02-26T18:36:30;4.67;;;2.10;;
7957;SDS011;4024;52.172;5.378;2023-02-26T18:39:02;6.53;;;2.73;;
7957;SDS011;4024;52.172;5.378;2023-02-26T18:41:30;4.27;;;2.20;;